sensor_id;sensor_type;location;lat;lon;timestamp;pressure;altitude;pressure_sealevel;temperature;humidity
54870;BME280;40756;-37.950;145.008;2023-01-30T00:01:15;101191.47;;;21.79;40.15
54870;BME280;40756;-37.950;145.008;2023-01-30T00:03:45;101187.64;;;21.09;41.05
54870;BME280;40756;-37.950;145.008;2023-01-30T00:06:16;101188.31;;;21.77;40.40
54870;BME280;40756;-37.950;145.008;2023-01-30T00:08:46;101190.89;;;22.15;39.96
54870;BME280;40756;-37.950;145.008;2023-01-30T00:11:18;101186.75;;;21.70;40.18
54870;BME280;40756;-37.950;145.008;2023-01-30T00:13:48;101181.89;;;22.15;39.93
54870;BME280;40756;-37.950;145.008;2023-01-30T00:16:19;101176.36;;;22.52;39.95
54870;BME280;40756;-37.950;145.008;2023-01-30T00:18:49;101177.47;;;21.85;39.81
54870;BME280;40756;-37.950;145.008;2023-01-30T00:21:18;101178.82;;;21.91;39.67
54870;BME280;40756;-37.950;145.008;2023-01-30T00:23:48;101173.83;;;21.76;39.88
54870;BME280;40756;-37.950;145.008;2023-01-30T00:26:17;101172.62;;;21.87;39.73
54870;BME280;40756;-37.950;145.008;2023-01-30T00:28:47;101165.42;;;21.89;39.70
54870;BME280;40756;-37.950;145.008;2023-01-30T00:31:16;101168.67;;;22.00;39.39
54870;BME280;40756;-37.950;145.008;2023-01-30T00:33:46;101170.47;;;22.01;39.47
54870;BME280;40756;-37.950;145.008;2023-01-30T00:36:15;101164.22;;;22.12;39.26
54870;BME280;40756;-37.950;145.008;2023-01-30T00:38:45;101165.38;;;22.37;39.44
54870;BME280;40756;-37.950;145.008;2023-01-30T00:41:14;101166.11;;;21.95;39.18
54870;BME280;40756;-37.950;145.008;2023-01-30T00:43:44;101157.82;;;22.08;39.63
54870;BME280;40756;-37.950;145.008;2023-01-30T00:46:18;101160.84;;;22.26;39.45
54870;BME280;40756;-37.950;145.008;2023-01-30T00:48:49;101156.65;;;22.20;38.93
54870;BME280;40756;-37.950;145.008;2023-01-30T00:51:19;101149.21;;;21.83;39.32
54870;BME280;40756;-37.950;145.008;2023-01-30T00:53:48;101147.52;;;21.85;39.97
54870;BME280;40756;-37.950;145.008;2023-01-30T00:56:18;101144.00;;;21.31;40.26
54870;BME280;40756;-37.950;145.008;2023-01-30T00:58:47;101138.92;;;21.77;40.75
54870;BME280;40756;-37.950;145.008;2023-01-30T01:01:17;101140.05;;;22.17;40.24
54870;BME280;40756;-37.950;145.008;2023-01-30T01:03:46;101140.73;;;21.27;41.09
54870;BME280;40756;-37.950;145.008;2023-01-30T01:06:16;101136.11;;;20.63;41.55
54870;BME280;40756;-37.950;145.008;2023-01-30T01:08:45;101138.38;;;21.18;41.15
54870;BME280;40756;-37.950;145.008;2023-01-30T01:11:15;101130.83;;;20.73;41.97
54870;BME280;40756;-37.950;145.008;2023-01-30T01:13:44;101122.22;;;21.35;41.03
54870;BME280;40756;-37.950;145.008;2023-01-30T01:16:13;101116.40;;;21.80;40.71
54870;BME280;40756;-37.950;145.008;2023-01-30T01:18:43;101110.17;;;22.20;39.65
54870;BME280;40756;-37.950;145.008;2023-01-30T01:21:13;101111.56;;;22.08;40.13
54870;BME280;40756;-37.950;145.008;2023-01-30T01:23:43;101106.57;;;21.63;40.52
54870;BME280;40756;-37.950;145.008;2023-01-30T01:26:12;101098.53;;;22.62;40.03
54870;BME280;40756;-37.950;145.008;2023-01-30T01:28:42;101094.26;;;22.42;39.48
54870;BME280;40756;-37.950;145.008;2023-01-30T01:31:13;101092.77;;;22.32;40.31
54870;BME280;40756;-37.950;145.008;2023-01-30T01:33:42;101087.98;;;22.30;39.42
54870;BME280;40756;-37.950;145.008;2023-01-30T01:36:12;101084.26;;;22.14;39.73
54870;BME280;40756;-37.950;145.008;2023-01-30T01:38:42;101093.06;;;22.05;39.71
54870;BME280;40756;-37.950;145.008;2023-01-30T01:41:13;101082.96;;;22.13;40.17
54870;BME280;40756;-37.950;145.008;2023-01-30T01:44:00;101082.12;;;22.31;39.87
54870;BME280;40756;-37.950;145.008;2023-01-30T01:46:35;101085.77;;;21.63;40.11
54870;BME280;40756;-37.950;145.008;2023-01-30T01:49:11;101086.90;;;22.12;40.24
54870;BME280;40756;-37.950;145.008;2023-01-30T01:51:49;101085.67;;;21.17;40.62
54870;BME280;40756;-37.950;145.008;2023-01-30T01:54:24;101081.50;;;22.04;39.91
54870;BME280;40756;-37.950;145.008;2023-01-30T01:56:54;101081.23;;;22.57;38.96
54870;BME280;40756;-37.950;145.008;2023-01-30T01:59:27;101076.43;;;21.94;39.70
54870;BME280;40756;-37.950;145.008;2023-01-30T02:02:02;101071.53;;;22.39;39.47
54870;BME280;40756;-37.950;145.008;2023-01-30T02:04:35;101065.14;;;22.42;39.18
54870;BME280;40756;-37.950;145.008;2023-01-30T02:07:06;101070.37;;;22.79;38.72
54870;BME280;40756;-37.950;145.008;2023-01-30T02:09:37;101070.52;;;21.83;39.55
54870;BME280;40756;-37.950;145.008;2023-01-30T02:12:07;101071.20;;;22.04;38.87
54870;BME280;40756;-37.950;145.008;2023-01-30T02:14:38;101077.02;;;22.25;39.35
54870;BME280;40756;-37.950;145.008;2023-01-30T02:17:08;101066.88;;;22.53;39.46
54870;BME280;40756;-37.950;145.008;2023-01-30T02:19:45;101061.91;;;21.86;39.83
54870;BME280;40756;-37.950;145.008;2023-01-30T02:23:14;101055.78;;;21.52;40.68
54870;BME280;40756;-37.950;145.008;2023-01-30T02:26:16;101055.68;;;21.84;39.90
54870;BME280;40756;-37.950;145.008;2023-01-30T02:29:40;101053.98;;;21.94;40.43
54870;BME280;40756;-37.950;145.008;2023-01-30T02:32:22;101049.62;;;22.61;39.88
54870;BME280;40756;-37.950;145.008;2023-01-30T02:35:01;101047.69;;;22.52;39.25
54870;BME280;40756;-37.950;145.008;2023-01-30T02:37:42;101043.07;;;22.67;38.99
54870;BME280;40756;-37.950;145.008;2023-01-30T02:40:27;101042.96;;;22.65;39.27
54870;BME280;40756;-37.950;145.008;2023-01-30T02:43:09;101042.93;;;21.83;40.42
54870;BME280;40756;-37.950;145.008;2023-01-30T02:45:49;101040.83;;;22.68;38.99
54870;BME280;40756;-37.950;145.008;2023-01-30T02:48:26;101035.63;;;22.61;40.11
54870;BME280;40756;-37.950;145.008;2023-01-30T02:51:00;101039.02;;;21.97;39.82
54870;BME280;40756;-37.950;145.008;2023-01-30T02:53:33;101032.38;;;21.98;40.05
54870;BME280;40756;-37.950;145.008;2023-01-30T02:56:04;101034.47;;;22.07;40.41
54870;BME280;40756;-37.950;145.008;2023-01-30T02:58:39;101032.85;;;22.45;39.25
54870;BME280;40756;-37.950;145.008;2023-01-30T03:01:28;101032.97;;;22.67;39.81
54870;BME280;40756;-37.950;145.008;2023-01-30T03:04:13;101034.02;;;21.89;40.09
54870;BME280;40756;-37.950;145.008;2023-01-30T03:07:01;101039.66;;;22.05;41.06
54870;BME280;40756;-37.950;145.008;2023-01-30T03:09:43;101029.94;;;21.57;41.46
54870;BME280;40756;-37.950;145.008;2023-01-30T03:12:20;101022.93;;;22.20;41.37
54870;BME280;40756;-37.950;145.008;2023-01-30T03:14:58;101009.84;;;22.92;40.25
54870;BME280;40756;-37.950;145.008;2023-01-30T03:17:30;101008.59;;;22.88;39.90
54870;BME280;40756;-37.950;145.008;2023-01-30T03:20:01;101008.68;;;22.82;39.30
54870;BME280;40756;-37.950;145.008;2023-01-30T03:22:31;101012.97;;;22.19;39.72
54870;BME280;40756;-37.950;145.008;2023-01-30T03:25:01;101011.01;;;23.03;39.36
54870;BME280;40756;-37.950;145.008;2023-01-30T03:27:30;101006.36;;;22.90;39.69
54870;BME280;40756;-37.950;145.008;2023-01-30T03:30:01;101000.79;;;23.35;38.92
54870;BME280;40756;-37.950;145.008;2023-01-30T03:32:30;100994.93;;;23.66;38.82
54870;BME280;40756;-37.950;145.008;2023-01-30T03:34:59;100985.05;;;22.96;38.66
54870;BME280;40756;-37.950;145.008;2023-01-30T03:37:29;100987.98;;;23.11;38.43
54870;BME280;40756;-37.950;145.008;2023-01-30T03:39:59;100989.73;;;23.23;38.73
54870;BME280;40756;-37.950;145.008;2023-01-30T03:42:28;100992.72;;;23.38;38.37
54870;BME280;40756;-37.950;145.008;2023-01-30T03:44:58;100992.28;;;23.23;38.01
54870;BME280;40756;-37.950;145.008;2023-01-30T03:47:27;100989.28;;;22.71;38.79
54870;BME280;40756;-37.950;145.008;2023-01-30T03:49:57;100987.11;;;22.64;39.38
54870;BME280;40756;-37.950;145.008;2023-01-30T03:52:26;100986.70;;;22.72;38.46
54870;BME280;40756;-37.950;145.008;2023-01-30T03:54:55;100993.40;;;22.27;39.13
54870;BME280;40756;-37.950;145.008;2023-01-30T03:57:25;100999.65;;;21.41;40.23
54870;BME280;40756;-37.950;145.008;2023-01-30T03:59:54;100996.02;;;22.01;39.92
54870;BME280;40756;-37.950;145.008;2023-01-30T04:02:24;100992.32;;;22.33;40.07
54870;BME280;40756;-37.950;145.008;2023-01-30T04:04:53;100986.44;;;22.23;39.42
54870;BME280;40756;-37.950;145.008;2023-01-30T04:07:23;100983.97;;;21.89;39.57
54870;BME280;40756;-37.950;145.008;2023-01-30T04:09:52;100984.69;;;22.36;40.01
54870;BME280;40756;-37.950;145.008;2023-01-30T04:12:22;100983.89;;;21.59;39.58
54870;BME280;40756;-37.950;145.008;2023-01-30T04:14:51;100976.58;;;22.43;39.88
54870;BME280;40756;-37.950;145.008;2023-01-30T04:17:21;100977.72;;;22.12;39.25
54870;BME280;40756;-37.950;145.008;2023-01-30T04:19:50;100974.17;;;22.03;40.32
54870;BME280;40756;-37.950;145.008;2023-01-30T04:22:19;100974.05;;;22.63;39.94
54870;BME280;40756;-37.950;145.008;2023-01-30T04:24:50;100971.81;;;22.30;39.63
54870;BME280;40756;-37.950;145.008;2023-01-30T04:27:20;100968.12;;;22.64;39.02
54870;BME280;40756;-37.950;145.008;2023-01-30T04:29:50;100964.36;;;22.11;39.56
54870;BME280;40756;-37.950;145.008;2023-01-30T04:32:19;100968.32;;;22.57;39.56
54870;BME280;40756;-37.950;145.008;2023-01-30T04:34:50;100966.65;;;22.49;38.97
54870;BME280;40756;-37.950;145.008;2023-01-30T04:37:21;100967.07;;;21.61;40.18
54870;BME280;40756;-37.950;145.008;2023-01-30T04:39:50;100965.17;;;22.04;40.23
54870;BME280;40756;-37.950;145.008;2023-01-30T04:42:20;100966.95;;;22.39;40.01
54870;BME280;40756;-37.950;145.008;2023-01-30T04:44:50;100962.54;;;21.82;40.65
54870;BME280;40756;-37.950;145.008;2023-01-30T04:47:20;100963.30;;;21.62;40.63
54870;BME280;40756;-37.950;145.008;2023-01-30T04:49:51;100961.27;;;22.16;40.29
54870;BME280;40756;-37.950;145.008;2023-01-30T04:52:20;100957.13;;;22.22;39.05
54870;BME280;40756;-37.950;145.008;2023-01-30T04:54:50;100956.50;;;22.72;39.21
54870;BME280;40756;-37.950;145.008;2023-01-30T04:57:19;100954.56;;;21.69;40.26
54870;BME280;40756;-37.950;145.008;2023-01-30T04:59:49;100953.08;;;22.62;40.50
54870;BME280;40756;-37.950;145.008;2023-01-30T05:02:18;100955.49;;;22.50;39.40
54870;BME280;40756;-37.950;145.008;2023-01-30T05:04:49;100949.36;;;22.98;39.28
54870;BME280;40756;-37.950;145.008;2023-01-30T05:07:19;100953.90;;;22.67;39.72
54870;BME280;40756;-37.950;145.008;2023-01-30T05:09:48;100953.75;;;22.54;39.08
54870;BME280;40756;-37.950;145.008;2023-01-30T05:12:17;100947.68;;;22.86;38.86
54870;BME280;40756;-37.950;145.008;2023-01-30T05:14:47;100946.18;;;22.63;39.26
54870;BME280;40756;-37.950;145.008;2023-01-30T05:17:16;100943.40;;;23.64;38.74
54870;BME280;40756;-37.950;145.008;2023-01-30T05:19:48;100948.04;;;23.03;38.44
54870;BME280;40756;-37.950;145.008;2023-01-30T05:22:17;100944.47;;;23.51;38.14
54870;BME280;40756;-37.950;145.008;2023-01-30T05:24:46;100944.02;;;22.44;38.93
54870;BME280;40756;-37.950;145.008;2023-01-30T05:27:17;100939.66;;;23.63;38.31
54870;BME280;40756;-37.950;145.008;2023-01-30T05:29:46;100940.16;;;23.56;37.90
54870;BME280;40756;-37.950;145.008;2023-01-30T05:32:17;100935.38;;;23.32;38.10
54870;BME280;40756;-37.950;145.008;2023-01-30T05:34:48;100934.38;;;22.96;37.98
54870;BME280;40756;-37.950;145.008;2023-01-30T05:37:18;100932.48;;;23.66;38.16
54870;BME280;40756;-37.950;145.008;2023-01-30T05:39:48;100932.22;;;23.21;38.39
54870;BME280;40756;-37.950;145.008;2023-01-30T05:42:18;100929.96;;;23.20;37.78
54870;BME280;40756;-37.950;145.008;2023-01-30T05:44:48;100929.27;;;23.05;38.02
54870;BME280;40756;-37.950;145.008;2023-01-30T05:47:17;100927.37;;;23.51;37.98
54870;BME280;40756;-37.950;145.008;2023-01-30T05:49:47;100923.52;;;23.13;37.40
54870;BME280;40756;-37.950;145.008;2023-01-30T05:52:18;100921.43;;;22.98;37.51
54870;BME280;40756;-37.950;145.008;2023-01-30T05:54:47;100930.00;;;22.80;37.98
54870;BME280;40756;-37.950;145.008;2023-01-30T05:57:17;100918.31;;;23.26;37.40
54870;BME280;40756;-37.950;145.008;2023-01-30T05:59:46;100913.66;;;23.56;37.42
54870;BME280;40756;-37.950;145.008;2023-01-30T06:02:15;100913.82;;;23.27;37.01
54870;BME280;40756;-37.950;145.008;2023-01-30T06:04:45;100916.95;;;23.63;36.80
54870;BME280;40756;-37.950;145.008;2023-01-30T06:07:15;100912.54;;;23.09;37.53
54870;BME280;40756;-37.950;145.008;2023-01-30T06:09:44;100912.49;;;22.65;37.91
54870;BME280;40756;-37.950;145.008;2023-01-30T06:12:14;100909.62;;;22.82;37.42
54870;BME280;40756;-37.950;145.008;2023-01-30T06:14:44;100904.41;;;22.91;37.36
54870;BME280;40756;-37.950;145.008;2023-01-30T06:17:14;100900.17;;;23.36;37.21
54870;BME280;40756;-37.950;145.008;2023-01-30T06:19:43;100899.70;;;23.54;36.83
54870;BME280;40756;-37.950;145.008;2023-01-30T06:22:13;100895.29;;;23.09;37.03
54870;BME280;40756;-37.950;145.008;2023-01-30T06:24:42;100900.13;;;22.67;37.74
54870;BME280;40756;-37.950;145.008;2023-01-30T06:27:11;100897.07;;;22.52;38.83
54870;BME280;40756;-37.950;145.008;2023-01-30T06:29:42;100897.53;;;22.47;38.66
54870;BME280;40756;-37.950;145.008;2023-01-30T06:32:11;100897.48;;;22.57;38.39
54870;BME280;40756;-37.950;145.008;2023-01-30T06:34:41;100895.31;;;22.60;38.75
54870;BME280;40756;-37.950;145.008;2023-01-30T06:37:10;100896.88;;;22.14;38.65
54870;BME280;40756;-37.950;145.008;2023-01-30T06:39:40;100897.82;;;22.66;38.43
54870;BME280;40756;-37.950;145.008;2023-01-30T06:42:09;100895.92;;;22.96;37.79
54870;BME280;40756;-37.950;145.008;2023-01-30T06:44:38;100897.14;;;22.60;38.48
54870;BME280;40756;-37.950;145.008;2023-01-30T06:47:08;100898.88;;;22.97;37.90
54870;BME280;40756;-37.950;145.008;2023-01-30T06:49:37;100895.55;;;22.99;38.08
54870;BME280;40756;-37.950;145.008;2023-01-30T06:52:07;100892.65;;;22.87;37.82
54870;BME280;40756;-37.950;145.008;2023-01-30T06:54:36;100892.09;;;22.36;38.80
54870;BME280;40756;-37.950;145.008;2023-01-30T06:57:06;100892.38;;;22.10;38.83
54870;BME280;40756;-37.950;145.008;2023-01-30T06:59:35;100898.71;;;22.41;39.02
54870;BME280;40756;-37.950;145.008;2023-01-30T07:02:05;100896.14;;;22.72;39.17
54870;BME280;40756;-37.950;145.008;2023-01-30T07:04:34;100905.51;;;21.90;39.75
54870;BME280;40756;-37.950;145.008;2023-01-30T07:07:04;100897.49;;;21.94;39.65
54870;BME280;40756;-37.950;145.008;2023-01-30T07:09:33;100897.95;;;21.89;39.90
54870;BME280;40756;-37.950;145.008;2023-01-30T07:12:03;100902.68;;;21.88;40.43
54870;BME280;40756;-37.950;145.008;2023-01-30T07:14:32;100894.92;;;22.61;40.27
54870;BME280;40756;-37.950;145.008;2023-01-30T07:17:01;100898.01;;;22.14;39.58
54870;BME280;40756;-37.950;145.008;2023-01-30T07:19:31;100896.90;;;21.81;40.73
54870;BME280;40756;-37.950;145.008;2023-01-30T07:22:00;100894.78;;;22.14;40.65
54870;BME280;40756;-37.950;145.008;2023-01-30T07:24:30;100887.74;;;22.62;39.85
54870;BME280;40756;-37.950;145.008;2023-01-30T07:26:59;100891.83;;;22.32;39.68
54870;BME280;40756;-37.950;145.008;2023-01-30T07:29:29;100889.69;;;22.02;40.06
54870;BME280;40756;-37.950;145.008;2023-01-30T07:31:59;100895.66;;;22.00;39.98
54870;BME280;40756;-37.950;145.008;2023-01-30T07:34:29;100892.20;;;21.10;40.11
54870;BME280;40756;-37.950;145.008;2023-01-30T07:36:58;100888.31;;;21.55;40.45
54870;BME280;40756;-37.950;145.008;2023-01-30T07:39:27;100887.37;;;21.70;40.52
54870;BME280;40756;-37.950;145.008;2023-01-30T07:41:59;100892.72;;;21.62;41.09
54870;BME280;40756;-37.950;145.008;2023-01-30T07:44:29;100891.57;;;21.42;40.55
54870;BME280;40756;-37.950;145.008;2023-01-30T07:46:59;100888.13;;;21.45;41.03
54870;BME280;40756;-37.950;145.008;2023-01-30T07:49:28;100887.33;;;21.69;40.92
54870;BME280;40756;-37.950;145.008;2023-01-30T07:51:57;100888.99;;;20.69;41.99
54870;BME280;40756;-37.950;145.008;2023-01-30T07:54:27;100886.58;;;21.82;41.29
54870;BME280;40756;-37.950;145.008;2023-01-30T07:56:56;100887.64;;;21.56;40.65
54870;BME280;40756;-37.950;145.008;2023-01-30T07:59:26;100888.03;;;21.48;40.85
54870;BME280;40756;-37.950;145.008;2023-01-30T08:01:55;100884.50;;;21.46;40.59
54870;BME280;40756;-37.950;145.008;2023-01-30T08:04:25;100878.94;;;21.53;40.67
54870;BME280;40756;-37.950;145.008;2023-01-30T08:06:54;100877.68;;;21.48;40.64
54870;BME280;40756;-37.950;145.008;2023-01-30T08:09:24;100882.53;;;21.69;39.84
54870;BME280;40756;-37.950;145.008;2023-01-30T08:11:53;100889.31;;;22.08;39.58
54870;BME280;40756;-37.950;145.008;2023-01-30T08:14:22;100887.91;;;21.55;40.51
54870;BME280;40756;-37.950;145.008;2023-01-30T08:16:52;100888.99;;;21.75;40.58
54870;BME280;40756;-37.950;145.008;2023-01-30T08:19:21;100889.87;;;21.22;41.62
54870;BME280;40756;-37.950;145.008;2023-01-30T08:21:51;100891.24;;;21.61;40.24
54870;BME280;40756;-37.950;145.008;2023-01-30T08:24:20;100887.36;;;21.43;40.58
54870;BME280;40756;-37.950;145.008;2023-01-30T08:26:50;100888.56;;;21.78;40.28
54870;BME280;40756;-37.950;145.008;2023-01-30T08:29:19;100893.39;;;21.26;40.78
54870;BME280;40756;-37.950;145.008;2023-01-30T08:31:49;100897.88;;;21.60;40.63
54870;BME280;40756;-37.950;145.008;2023-01-30T08:34:19;100894.73;;;21.29;40.91
54870;BME280;40756;-37.950;145.008;2023-01-30T08:36:49;100892.30;;;21.46;40.62
54870;BME280;40756;-37.950;145.008;2023-01-30T08:39:18;100891.18;;;21.35;40.77
54870;BME280;40756;-37.950;145.008;2023-01-30T08:41:48;100894.59;;;21.07;41.23
54870;BME280;40756;-37.950;145.008;2023-01-30T08:44:17;100893.88;;;21.03;41.61
54870;BME280;40756;-37.950;145.008;2023-01-30T08:46:47;100902.14;;;21.04;41.61
54870;BME280;40756;-37.950;145.008;2023-01-30T08:49:16;100901.35;;;21.17;40.94
54870;BME280;40756;-37.950;145.008;2023-01-30T08:51:46;100905.80;;;20.97;40.79
54870;BME280;40756;-37.950;145.008;2023-01-30T08:54:15;100905.72;;;20.83;40.96
54870;BME280;40756;-37.950;145.008;2023-01-30T08:56:44;100902.98;;;21.20;40.65
54870;BME280;40756;-37.950;145.008;2023-01-30T08:59:15;100904.98;;;20.71;40.64
54870;BME280;40756;-37.950;145.008;2023-01-30T09:01:44;100907.71;;;20.90;40.38
54870;BME280;40756;-37.950;145.008;2023-01-30T09:04:14;100910.74;;;21.16;40.06
54870;BME280;40756;-37.950;145.008;2023-01-30T09:06:43;100910.72;;;20.74;40.16
54870;BME280;40756;-37.950;145.008;2023-01-30T09:09:13;100913.79;;;20.76;40.37
54870;BME280;40756;-37.950;145.008;2023-01-30T09:11:42;100917.15;;;20.93;40.11
54870;BME280;40756;-37.950;145.008;2023-01-30T09:14:12;100916.18;;;21.07;40.08
54870;BME280;40756;-37.950;145.008;2023-01-30T09:16:41;100917.36;;;20.87;40.41
54870;BME280;40756;-37.950;145.008;2023-01-30T09:19:11;100923.88;;;20.82;39.97
54870;BME280;40756;-37.950;145.008;2023-01-30T09:21:41;100925.79;;;20.92;39.96
54870;BME280;40756;-37.950;145.008;2023-01-30T09:24:10;100923.16;;;20.65;40.40
54870;BME280;40756;-37.950;145.008;2023-01-30T09:26:40;100925.21;;;20.52;40.41
54870;BME280;40756;-37.950;145.008;2023-01-30T09:29:09;100929.37;;;20.83;40.29
54870;BME280;40756;-37.950;145.008;2023-01-30T09:31:39;100935.73;;;21.00;40.08
54870;BME280;40756;-37.950;145.008;2023-01-30T09:34:08;100936.17;;;20.84;40.29
54870;BME280;40756;-37.950;145.008;2023-01-30T09:36:39;100932.76;;;20.58;40.52
54870;BME280;40756;-37.950;145.008;2023-01-30T09:39:09;100935.12;;;20.40;40.83
54870;BME280;40756;-37.950;145.008;2023-01-30T09:41:51;100935.69;;;20.24;40.67
54870;BME280;40756;-37.950;145.008;2023-01-30T09:44:50;100939.30;;;20.65;40.64
54870;BME280;40756;-37.950;145.008;2023-01-30T09:47:33;100944.32;;;20.47;40.52
54870;BME280;40756;-37.950;145.008;2023-01-30T09:50:18;100950.31;;;20.47;41.05
54870;BME280;40756;-37.950;145.008;2023-01-30T09:52:56;100945.23;;;20.25;41.17
54870;BME280;40756;-37.950;145.008;2023-01-30T09:55:32;100942.19;;;20.00;41.72
54870;BME280;40756;-37.950;145.008;2023-01-30T09:58:02;100941.63;;;19.94;41.95
54870;BME280;40756;-37.950;145.008;2023-01-30T10:00:35;100942.71;;;19.86;42.22
54870;BME280;40756;-37.950;145.008;2023-01-30T10:03:11;100944.68;;;19.68;42.48
54870;BME280;40756;-37.950;145.008;2023-01-30T10:05:45;100945.80;;;20.35;42.04
54870;BME280;40756;-37.950;145.008;2023-01-30T10:08:34;100948.15;;;19.74;42.29
54870;BME280;40756;-37.950;145.008;2023-01-30T10:11:14;100947.60;;;19.52;42.70
54870;BME280;40756;-37.950;145.008;2023-01-30T10:14:01;100953.02;;;19.41;42.86
54870;BME280;40756;-37.950;145.008;2023-01-30T10:16:40;100955.07;;;19.54;42.93
54870;BME280;40756;-37.950;145.008;2023-01-30T10:19:26;100953.49;;;19.53;42.89
54870;BME280;40756;-37.950;145.008;2023-01-30T10:22:05;100954.91;;;19.49;43.42
54870;BME280;40756;-37.950;145.008;2023-01-30T10:24:48;100955.19;;;19.06;43.48
54870;BME280;40756;-37.950;145.008;2023-01-30T10:27:21;100950.69;;;19.52;42.87
54870;BME280;40756;-37.950;145.008;2023-01-30T10:29:56;100950.88;;;19.94;42.97
54870;BME280;40756;-37.950;145.008;2023-01-30T10:32:29;100949.93;;;19.32;43.64
54870;BME280;40756;-37.950;145.008;2023-01-30T10:35:05;100948.32;;;19.23;44.08
54870;BME280;40756;-37.950;145.008;2023-01-30T10:37:44;100952.01;;;19.26;45.14
54870;BME280;40756;-37.950;145.008;2023-01-30T10:40:22;100953.62;;;19.37;44.14
54870;BME280;40756;-37.950;145.008;2023-01-30T10:43:00;100947.08;;;19.68;44.10
54870;BME280;40756;-37.950;145.008;2023-01-30T10:45:36;100953.82;;;19.37;44.08
54870;BME280;40756;-37.950;145.008;2023-01-30T10:48:29;100957.44;;;19.29;44.52
54870;BME280;40756;-37.950;145.008;2023-01-30T10:51:14;100961.70;;;19.54;44.11
54870;BME280;40756;-37.950;145.008;2023-01-30T10:53:51;100958.67;;;19.55;44.31
54870;BME280;40756;-37.950;145.008;2023-01-30T10:56:28;100960.21;;;19.33;44.58
54870;BME280;40756;-37.950;145.008;2023-01-30T10:59:05;100960.94;;;19.15;44.81
54870;BME280;40756;-37.950;145.008;2023-01-30T11:01:41;100956.91;;;19.45;44.75
54870;BME280;40756;-37.950;145.008;2023-01-30T11:04:21;100958.95;;;19.46;44.23
54870;BME280;40756;-37.950;145.008;2023-01-30T11:06:54;100961.89;;;19.24;44.73
54870;BME280;40756;-37.950;145.008;2023-01-30T11:09:24;100957.13;;;19.24;44.89
54870;BME280;40756;-37.950;145.008;2023-01-30T11:12:06;100955.56;;;19.45;44.48
54870;BME280;40756;-37.950;145.008;2023-01-30T11:14:56;100954.64;;;19.18;44.89
54870;BME280;40756;-37.950;145.008;2023-01-30T11:17:35;100963.45;;;19.26;44.91
54870;BME280;40756;-37.950;145.008;2023-01-30T11:20:12;100959.19;;;18.77;45.64
54870;BME280;40756;-37.950;145.008;2023-01-30T11:22:47;100953.18;;;19.12;45.37
54870;BME280;40756;-37.950;145.008;2023-01-30T11:25:19;100952.11;;;18.90;45.95
54870;BME280;40756;-37.950;145.008;2023-01-30T11:27:54;100956.06;;;19.08;45.92
54870;BME280;40756;-37.950;145.008;2023-01-30T11:30:29;100960.30;;;19.30;44.92
54870;BME280;40756;-37.950;145.008;2023-01-30T11:33:10;100963.23;;;19.03;45.37
54870;BME280;40756;-37.950;145.008;2023-01-30T11:35:50;100970.87;;;18.98;45.30
54870;BME280;40756;-37.950;145.008;2023-01-30T11:38:23;100978.97;;;18.79;45.90
54870;BME280;40756;-37.950;145.008;2023-01-30T11:41:04;100974.08;;;19.21;45.33
54870;BME280;40756;-37.950;145.008;2023-01-30T11:43:34;100973.44;;;18.97;45.01
54870;BME280;40756;-37.950;145.008;2023-01-30T11:46:05;100975.18;;;19.08;45.23
54870;BME280;40756;-37.950;145.008;2023-01-30T11:48:42;100970.71;;;18.93;45.62
54870;BME280;40756;-37.950;145.008;2023-01-30T11:51:13;100960.50;;;19.08;45.58
54870;BME280;40756;-37.950;145.008;2023-01-30T11:53:46;100954.42;;;19.21;45.42
54870;BME280;40756;-37.950;145.008;2023-01-30T11:56:22;100961.52;;;19.37;44.51
54870;BME280;40756;-37.950;145.008;2023-01-30T11:58:56;100971.21;;;19.77;44.19
54870;BME280;40756;-37.950;145.008;2023-01-30T12:01:31;100969.06;;;19.52;44.28
54870;BME280;40756;-37.950;145.008;2023-01-30T12:04:04;100950.36;;;19.97;43.94
54870;BME280;40756;-37.950;145.008;2023-01-30T12:06:36;100948.25;;;19.73;44.01
54870;BME280;40756;-37.950;145.008;2023-01-30T12:09:10;100953.21;;;19.98;44.14
54870;BME280;40756;-37.950;145.008;2023-01-30T12:12:02;100951.36;;;19.60;43.91
54870;BME280;40756;-37.950;145.008;2023-01-30T12:14:37;100950.13;;;19.59;43.81
54870;BME280;40756;-37.950;145.008;2023-01-30T12:17:17;100943.80;;;19.82;43.65
54870;BME280;40756;-37.950;145.008;2023-01-30T12:19:57;100938.40;;;19.80;43.61
54870;BME280;40756;-37.950;145.008;2023-01-30T12:22:37;100927.99;;;19.88;43.54
54870;BME280;40756;-37.950;145.008;2023-01-30T12:25:15;100924.41;;;19.95;43.47
54870;BME280;40756;-37.950;145.008;2023-01-30T12:27:55;100922.50;;;19.81;43.58
54870;BME280;40756;-37.950;145.008;2023-01-30T12:30:32;100919.93;;;19.93;43.57
54870;BME280;40756;-37.950;145.008;2023-01-30T12:33:04;100920.81;;;19.80;43.65
54870;BME280;40756;-37.950;145.008;2023-01-30T12:35:46;100922.87;;;19.60;44.04
54870;BME280;40756;-37.950;145.008;2023-01-30T12:38:26;100928.18;;;19.54;44.22
54870;BME280;40756;-37.950;145.008;2023-01-30T12:41:11;100934.64;;;19.50;44.20
54870;BME280;40756;-37.950;145.008;2023-01-30T12:43:53;100928.91;;;19.91;44.27
54870;BME280;40756;-37.950;145.008;2023-01-30T12:46:41;100920.04;;;19.52;44.28
54870;BME280;40756;-37.950;145.008;2023-01-30T12:49:30;100918.29;;;19.50;44.40